Time;durP1;ratioP1;P1;durP2;ratioP2;P2;SDS_P1;SDS_P2;PMS_P1;PMS_P2;Temp;Humidity;BMP_temperature;BMP_pressure;BME280_temperature;BME280_humidity;BME280_pressure;Samples;Min_cycle;Max_cycle;Signal;HPM_P1;HPM_P2
2024/03/26 00:01:40;;;;;;;3.28;2.00;;;;;;;1.47;64.94;94339.78;5134397;27;20027;-70
2024/03/26 00:04:06;;;;;;;3.42;1.90;;;;;;;1.60;64.42;94351.03;5113855;27;20488;-71
2024/03/26 00:06:31;;;;;;;2.53;1.70;;;;;;;1.56;63.23;94336.72;5121613;27;20039;-71
2024/03/26 00:08:57;;;;;;;2.97;1.95;;;;;;;1.73;63.83;94346.06;5102319;27;20034;-70
2024/03/26 00:11:24;;;;;;;2.70;1.80;;;;;;;1.69;64.47;94345.38;5127115;27;20501;-71
2024/03/26 00:13:49;;;;;;;2.92;1.90;;;;;;;1.60;63.64;94320.28;5116864;27;20563;-70
2024/03/26 00:16:14;;;;;;;2.78;1.70;;;;;;;1.67;64.06;94351.50;5129415;27;20027;-71
2024/03/26 00:18:40;;;;;;;3.17;2.08;;;;;;;1.71;63.64;94358.13;5110042;27;20139;-72
2024/03/26 00:21:05;;;;;;;3.60;2.22;;;;;;;1.68;63.54;94369.34;5126093;27;20030;-72
2024/03/26 00:23:31;;;;;;;3.70;1.90;;;;;;;1.62;63.47;94354.34;5125323;27;20397;-72
2024/03/26 00:25:56;;;;;;;3.33;1.88;;;;;;;1.68;63.25;94353.97;5131185;27;20090;-72
2024/03/26 00:28:22;;;;;;;2.97;1.90;;;;;;;1.70;63.61;94339.38;5137100;27;20031;-71
2024/03/26 00:30:47;;;;;;;2.45;1.60;;;;;;;1.69;63.93;94318.94;5151487;27;20015;-71
2024/03/26 00:33:12;;;;;;;2.72;2.00;;;;;;;1.63;64.36;94330.38;5118976;27;20023;-71
2024/03/26 00:35:38;;;;;;;3.05;1.90;;;;;;;1.77;65.20;94347.53;5120587;27;20026;-71
2024/03/26 00:38:03;;;;;;;2.70;1.85;;;;;;;1.75;65.87;94345.03;5116715;27;20417;-71
2024/03/26 00:40:29;;;;;;;3.45;2.00;;;;;;;1.64;65.28;94347.38;5144134;27;20042;-71
2024/03/26 00:42:54;;;;;;;3.42;2.00;;;;;;;1.63;64.55;94339.78;5153753;27;20030;-71
2024/03/26 00:45:20;;;;;;;2.60;1.90;;;;;;;1.64;64.33;94326.06;5133618;27;20394;-71
2024/03/26 00:47:45;;;;;;;3.63;2.00;;;;;;;1.63;64.54;94345.72;5133102;27;20064;-71
2024/03/26 00:50:10;;;;;;;3.55;2.25;;;;;;;1.62;64.74;94344.09;5147433;27;20031;-72
2024/03/26 00:52:36;;;;;;;2.92;2.20;;;;;;;1.70;65.65;94341.94;5117198;27;20038;-71
2024/03/26 00:55:01;;;;;;;2.92;1.80;;;;;;;1.66;65.76;94342.19;5153628;27;20054;-71
2024/03/26 00:57:27;;;;;;;3.30;1.95;;;;;;;1.55;66.28;94343.59;5112262;27;20412;-71
2024/03/26 00:59:52;;;;;;;3.47;2.47;;;;;;;1.60;65.93;94350.19;5114273;27;20072;-71
2024/03/26 01:02:18;;;;;;;3.85;2.20;;;;;;;1.51;65.42;94346.41;5151438;27;20477;-71
2024/03/26 01:04:43;;;;;;;7.28;3.95;;;;;;;1.41;64.75;94340.97;5135270;27;20031;-71
2024/03/26 01:07:08;;;;;;;4.18;2.58;;;;;;;1.33;65.86;94338.81;5131597;27;21076;-71
2024/03/26 01:09:34;;;;;;;3.15;1.90;;;;;;;1.27;66.35;94336.59;5152587;27;20035;-71
2024/03/26 01:11:59;;;;;;;4.07;2.10;;;;;;;1.14;67.27;94329.66;5135121;27;20034;-71
2024/03/26 01:14:25;;;;;;;3.45;2.30;;;;;;;0.93;68.39;94336.75;5112937;27;20027;-71
2024/03/26 01:16:50;;;;;;;2.58;1.98;;;;;;;0.71;68.74;94299.50;5086404;27;20034;-72
2024/03/26 01:19:15;;;;;;;2.90;1.77;;;;;;;1.02;67.88;94338.81;5117765;27;20034;-72
2024/03/26 01:21:41;;;;;;;3.00;1.95;;;;;;;1.14;67.04;94338.16;5153730;27;20400;-72
2024/03/26 01:24:06;;;;;;;2.85;1.80;;;;;;;1.08;67.53;94334.19;5134818;27;20035;-72
2024/03/26 01:26:32;;;;;;;3.13;2.17;;;;;;;1.10;67.65;94346.91;5134439;27;20027;-72
2024/03/26 01:28:57;;;;;;;2.65;1.55;;;;;;;1.15;66.78;94352.63;5134556;27;20030;-72
2024/03/26 01:31:22;;;;;;;3.35;2.22;;;;;;;1.16;67.16;94350.88;5117748;27;20027;-72
2024/03/26 01:33:48;;;;;;;4.10;2.13;;;;;;;1.07;67.25;94352.19;5134936;27;20023;-72
2024/03/26 01:36:13;;;;;;;3.40;2.20;;;;;;;1.05;67.59;94369.34;5153050;27;20023;-71
2024/03/26 01:38:39;;;;;;;3.17;2.13;;;;;;;0.94;68.51;94366.53;5130963;27;20055;-71
2024/03/26 01:41:04;;;;;;;3.25;2.50;;;;;;;0.88;67.55;94360.00;5130374;27;20031;-71
2024/03/26 01:43:29;;;;;;;3.33;2.13;;;;;;;0.84;67.20;94361.91;5113348;27;20280;-71
2024/03/26 01:45:55;;;;;;;4.63;3.30;;;;;;;0.69;68.03;94359.31;5113319;27;20034;-71
2024/03/26 01:48:20;;;;;;;3.70;3.08;;;;;;;0.58;68.99;94360.66;5130858;27;20031;-71
2024/03/26 01:50:45;;;;;;;7.60;2.85;;;;;;;0.48;69.79;94351.03;5130947;27;20039;-71
2024/03/26 01:53:11;;;;;;;4.10;2.55;;;;;;;0.44;70.21;94363.91;5093161;28;20085;-71
2024/03/26 01:55:36;;;;;;;4.43;2.90;;;;;;;0.49;70.83;94353.47;5110521;28;20031;-71
2024/03/26 01:58:02;;;;;;;2.72;2.00;;;;;;;0.37;70.77;94347.25;5093317;28;20034;-70
2024/03/26 02:00:29;;;;;;;2.97;1.90;;;;;;;0.19;70.21;94322.63;5093438;28;20031;-71
2024/03/26 02:02:54;;;;;;;2.83;2.00;;;;;;;0.06;70.17;94329.28;5093295;28;20493;-70
2024/03/26 02:05:20;;;;;;;4.25;2.60;;;;;;;0.23;70.11;94324.16;5093348;28;20037;-70
2024/03/26 02:07:45;;;;;;;3.85;2.80;;;;;;;0.11;70.23;94340.91;5110131;28;20539;-71
2024/03/26 02:10:11;;;;;;;3.08;1.75;;;;;;;-0.08;71.22;94345.28;5110308;28;20040;-71
2024/03/26 02:12:36;;;;;;;2.90;1.77;;;;;;;-0.14;71.97;94341.28;5111218;28;20045;-70
2024/03/26 02:15:02;;;;;;;2.55;1.88;;;;;;;-0.12;71.83;94336.91;5110209;28;20316;-70
2024/03/26 02:17:27;;;;;;;2.30;1.65;;;;;;;-0.12;71.13;94331.81;5110022;28;20023;-71
2024/03/26 02:19:53;;;;;;;5.43;3.63;;;;;;;-0.09;71.41;94344.41;5110231;28;20394;-71
2024/03/26 02:22:19;;;;;;;4.35;3.13;;;;;;;-0.24;71.67;94314.53;5092664;28;20619;-71
2024/03/26 02:24:44;;;;;;;4.65;2.78;;;;;;;0.10;71.83;94356.31;5110058;28;20093;-71
2024/03/26 02:27:09;;;;;;;4.55;2.22;;;;;;;0.11;72.29;94350.28;5092801;28;20516;-71
2024/03/26 02:29:35;;;;;;;3.28;2.03;;;;;;;0.22;71.15;94348.03;5111133;28;20032;-71
2024/03/26 02:32:00;;;;;;;3.47;1.90;;;;;;;0.21;70.34;94348.94;5119631;28;20042;-70
2024/03/26 02:34:26;;;;;;;2.45;1.77;;;;;;;0.22;70.15;94350.56;5130424;28;20034;-70
2024/03/26 02:36:51;;;;;;;2.75;1.85;;;;;;;0.19;70.24;94359.22;5132337;27;20234;-70
2024/03/26 02:39:16;;;;;;;4.05;2.15;;;;;;;0.20;70.46;94354.97;5140608;27;20103;-70
2024/03/26 02:41:42;;;;;;;3.08;1.80;;;;;;;0.40;69.83;94352.22;5133513;27;20023;-70
2024/03/26 02:44:07;;;;;;;2.80;1.90;;;;;;;0.41;70.03;94348.75;5116699;27;20038;-70
2024/03/26 02:46:32;;;;;;;3.00;2.05;;;;;;;0.30;69.40;94338.25;5133344;27;20476;-70
2024/03/26 02:48:58;;;;;;;3.45;2.25;;;;;;;0.40;70.26;94351.41;5133920;27;20030;-70
2024/03/26 02:51:23;;;;;;;3.70;2.70;;;;;;;0.33;70.68;94353.41;5133920;27;20038;-70
2024/03/26 02:53:49;;;;;;;5.57;4.15;;;;;;;0.38;71.05;94358.31;5135624;27;20023;-70
2024/03/26 02:56:14;;;;;;;5.55;4.20;;;;;;;0.41;70.46;94347.94;5156437;27;20241;-70
2024/03/26 02:58:40;;;;;;;5.43;2.90;;;;;;;0.47;70.13;94346.78;5156104;27;20507;-70
2024/03/26 03:01:14;;;;;;;6.07;3.58;;;;;;;0.40;70.89;94361.63;5137509;27;20385;-70
2024/03/26 03:03:39;;;;;;;6.55;4.05;;;;;;;0.39;70.77;94362.50;5156101;27;20565;-70
2024/03/26 03:06:08;;;;;;;4.35;3.30;;;;;;;0.25;70.86;94337.63;5156396;27;20023;-70
2024/03/26 03:08:33;;;;;;;3.85;2.28;;;;;;;0.35;69.66;94345.69;5120579;27;20027;-70
2024/03/26 03:10:59;;;;;;;3.70;2.30;;;;;;;0.49;69.74;94360.31;5137607;27;20030;-70
2024/03/26 03:13:24;;;;;;;3.28;2.22;;;;;;;0.49;70.76;94368.81;5137324;27;20445;-70
2024/03/26 03:15:50;;;;;;;3.63;2.17;;;;;;;0.41;70.50;94370.94;5156057;27;20463;-70
2024/03/26 03:18:15;;;;;;;3.22;1.92;;;;;;;0.46;69.80;94373.25;5120162;27;20135;-70
2024/03/26 03:20:41;;;;;;;2.92;1.95;;;;;;;0.29;70.17;94381.78;5155651;27;20023;-70
2024/03/26 03:23:06;;;;;;;3.08;2.08;;;;;;;0.19;70.13;94378.84;5137482;27;20031;-70
2024/03/26 03:25:32;;;;;;;3.40;2.35;;;;;;;0.17;70.26;94370.44;5137325;27;20046;-70
2024/03/26 03:27:58;;;;;;;2.70;2.00;;;;;;;0.28;70.63;94377.53;5137100;27;20481;-70
2024/03/26 03:30:23;;;;;;;2.90;2.10;;;;;;;0.16;70.86;94386.66;5136840;27;20023;-70
2024/03/26 03:32:49;;;;;;;3.28;2.05;;;;;;;0.13;70.32;94384.25;5136978;27;20484;-70
2024/03/26 03:35:14;;;;;;;4.32;2.10;;;;;;;0.36;69.91;94391.63;5136934;27;20031;-69
2024/03/26 03:37:39;;;;;;;4.35;2.10;;;;;;;0.27;69.80;94394.63;5155536;27;20501;-69
2024/03/26 03:40:06;;;;;;;3.53;2.00;;;;;;;0.17;69.73;94376.38;5154957;27;20496;-69
2024/03/26 03:42:31;;;;;;;3.03;1.90;;;;;;;0.25;69.84;94400.69;5136954;27;20480;-69
2024/03/26 03:44:56;;;;;;;2.58;1.52;;;;;;;0.18;70.15;94401.00;5136764;27;20023;-69
2024/03/26 03:47:22;;;;;;;2.67;1.60;;;;;;;0.21;70.63;94395.75;5116045;27;20031;-69
2024/03/26 03:49:47;;;;;;;2.67;1.95;;;;;;;-0.05;70.37;94350.22;5133498;27;20035;-69
2024/03/26 03:52:13;;;;;;;3.10;2.00;;;;;;;0.12;70.06;94374.94;5151645;27;20035;-69
2024/03/26 03:54:39;;;;;;;3.22;2.05;;;;;;;0.23;70.30;94382.91;5129197;27;20072;-69
2024/03/26 03:57:04;;;;;;;2.80;1.70;;;;;;;0.26;70.13;94387.84;5132759;27;20027;-70
2024/03/26 03:59:30;;;;;;;2.67;1.80;;;;;;;0.12;71.12;94385.16;5114939;27;20039;-69
2024/03/26 04:01:55;;;;;;;2.35;1.65;;;;;;;0.14;70.65;94398.66;5147526;27;20025;-69
2024/03/26 04:04:20;;;;;;;2.55;1.80;;;;;;;0.41;69.68;94410.09;5149132;27;20027;-69
2024/03/26 04:06:46;;;;;;;3.80;1.90;;;;;;;0.21;70.06;94410.25;5126326;27;20041;-69
2024/03/26 04:09:11;;;;;;;3.00;1.88;;;;;;;0.10;70.74;94399.72;5122120;27;20547;-69
2024/03/26 04:11:37;;;;;;;3.72;1.95;;;;;;;0.09;70.45;94398.09;5103387;27;20039;-69
2024/03/26 04:14:02;;;;;;;2.70;1.80;;;;;;;0.12;70.30;94414.09;5124611;27;20076;-71
2024/03/26 04:16:28;;;;;;;2.63;1.60;;;;;;;0.20;70.60;94423.94;5128898;27;20075;-71
2024/03/26 04:18:53;;;;;;;4.55;2.38;;;;;;;0.14;70.60;94421.66;5116389;27;20496;-71
2024/03/26 04:21:19;;;;;;;2.80;1.90;;;;;;;0.22;70.82;94419.56;5090030;27;20042;-71
2024/03/26 04:23:45;;;;;;;2.80;2.03;;;;;;;0.16;70.47;94404.53;5084277;27;20121;-70
2024/03/26 04:26:13;;;;;;;2.45;1.83;;;;;;;0.00;69.96;94394.25;5113460;27;20027;-71
2024/03/26 04:28:38;;;;;;;3.25;2.00;;;;;;;0.27;70.08;94427.81;5149507;27;20508;-71
2024/03/26 04:31:04;;;;;;;2.60;1.85;;;;;;;0.42;69.68;94442.44;5109949;27;20019;-71
2024/03/26 04:33:29;;;;;;;2.40;1.60;;;;;;;0.24;70.15;94443.31;5105331;27;20033;-71
2024/03/26 04:35:55;;;;;;;3.50;1.95;;;;;;;0.45;69.03;94456.78;5139218;27;20018;-71
2024/03/26 04:38:20;;;;;;;3.03;2.30;;;;;;;0.41;69.67;94445.03;5133358;27;20039;-70
2024/03/26 04:40:45;;;;;;;3.42;2.30;;;;;;;0.47;69.92;94459.25;5120572;27;20113;-71
2024/03/26 04:43:11;;;;;;;4.72;2.80;;;;;;;0.71;69.26;94452.09;5149212;27;20038;-71
2024/03/26 04:45:36;;;;;;;10.38;6.30;;;;;;;0.70;68.74;94453.84;5124644;27;20026;-71
2024/03/26 04:48:02;;;;;;;22.05;10.38;;;;;;;0.41;69.55;94439.94;5115465;27;20295;-70
2024/03/26 04:50:28;;;;;;;36.85;27.63;;;;;;;0.39;69.79;94447.69;5149528;27;20390;-71
2024/03/26 04:52:53;;;;;;;19.73;14.25;;;;;;;0.78;69.36;94441.50;5125642;27;21062;-70
2024/03/26 04:55:18;;;;;;;7.50;5.03;;;;;;;0.96;69.53;94441.47;5137723;27;20023;-71
2024/03/26 04:57:44;;;;;;;8.65;4.50;;;;;;;0.80;69.25;94437.13;5125412;27;20027;-70
2024/03/26 05:00:13;;;;;;;6.93;5.10;;;;;;;0.85;69.59;94440.28;5126688;27;20035;-71
2024/03/26 05:02:43;;;;;;;5.53;2.90;;;;;;;0.75;68.38;94433.13;5126196;27;20037;-71
2024/03/26 05:05:09;;;;;;;7.53;3.17;;;;;;;0.70;68.19;94420.59;5149518;27;20058;-71
2024/03/26 05:07:35;;;;;;;7.95;3.50;;;;;;;0.92;67.95;94425.44;5130947;27;20054;-72
2024/03/26 05:10:00;;;;;;;7.25;3.35;;;;;;;0.78;68.13;94403.13;5115041;27;20499;-71
2024/03/26 05:12:28;;;;;;;5.15;3.15;;;;;;;1.20;66.04;94432.53;5113827;27;20546;-71
2024/03/26 05:14:54;;;;;;;5.60;3.33;;;;;;;0.94;67.51;94422.81;5095133;27;20023;-71
2024/03/26 05:17:19;;;;;;;4.53;2.80;;;;;;;1.12;67.32;94421.84;5130129;27;20030;-71
2024/03/26 05:19:45;;;;;;;3.03;1.90;;;;;;;1.70;65.41;94423.03;5134428;27;20023;-71
2024/03/26 05:22:10;;;;;;;2.58;1.75;;;;;;;2.05;64.33;94418.53;5117150;27;20027;-72
2024/03/26 05:24:38;;;;;;;2.60;1.80;;;;;;;2.52;62.85;94415.03;5147793;27;20023;-71
2024/03/26 05:27:03;;;;;;;7.47;5.28;;;;;;;2.57;63.72;94425.03;5132294;27;20109;-72
2024/03/26 05:29:29;;;;;;;10.18;8.10;;;;;;;2.53;64.00;94419.22;5148667;27;20038;-72
2024/03/26 05:31:54;;;;;;;12.00;8.05;;;;;;;2.86;63.92;94425.88;5107573;27;20083;-72
2024/03/26 05:34:20;;;;;;;17.13;10.77;;;;;;;3.12;63.20;94430.31;5093978;27;20402;-72
2024/03/26 05:36:45;;;;;;;11.48;6.57;;;;;;;3.06;62.88;94430.66;5117747;27;20023;-72
2024/03/26 05:39:11;;;;;;;8.63;5.97;;;;;;;3.43;61.49;94425.06;5133488;27;20055;-72
2024/03/26 05:41:37;;;;;;;5.20;3.20;;;;;;;3.65;59.82;94414.28;5122816;27;20477;-73
2024/03/26 05:44:03;;;;;;;7.38;4.80;;;;;;;3.64;59.46;94404.94;5106138;27;20033;-72
2024/03/26 05:46:29;;;;;;;3.40;2.35;;;;;;;3.53;58.29;94421.81;5133363;27;20058;-73
2024/03/26 05:48:55;;;;;;;11.07;7.60;;;;;;;3.28;61.06;94431.94;5111724;27;20023;-73
2024/03/26 05:51:20;;;;;;;18.67;9.52;;;;;;;3.38;61.72;94430.47;5105823;27;20412;-73
2024/03/26 05:53:46;;;;;;;4.95;3.35;;;;;;;3.26;60.15;94428.63;5149016;27;20037;-71
2024/03/26 05:56:11;;;;;;;15.38;10.75;;;;;;;3.30;62.57;94435.25;5133486;27;20030;-71
2024/03/26 05:58:36;;;;;;;3.33;2.45;;;;;;;3.63;58.40;94416.13;5147218;27;20111;-70
2024/03/26 06:01:03;;;;;;;3.38;2.28;;;;;;;3.83;58.07;94423.41;5118368;27;20100;-71
2024/03/26 06:03:28;;;;;;;7.22;5.35;;;;;;;4.17;59.65;94423.84;5095303;27;20039;-71
2024/03/26 06:05:54;;;;;;;7.90;6.40;;;;;;;4.09;60.24;94423.50;5139786;27;20050;-71
2024/03/26 06:08:19;;;;;;;41.67;16.35;;;;;;;4.13;60.34;94432.69;5133650;27;20511;-71
2024/03/26 06:10:44;;;;;;;34.97;15.80;;;;;;;4.36;59.78;94432.03;5103198;27;20404;-71
2024/03/26 06:13:10;;;;;;;15.02;8.55;;;;;;;4.46;58.98;94435.69;5108444;27;20034;-71
2024/03/26 06:15:35;;;;;;;13.20;8.77;;;;;;;4.77;58.93;94440.56;5146595;27;20023;-71
2024/03/26 06:18:00;;;;;;;7.93;5.15;;;;;;;4.58;58.79;94415.22;5131667;27;20027;-71
2024/03/26 06:20:26;;;;;;;7.80;5.70;;;;;;;4.51;58.84;94427.63;5130777;27;20489;-71
2024/03/26 06:22:51;;;;;;;6.85;5.35;;;;;;;4.51;59.65;94432.78;5110261;27;20038;-71
2024/03/26 06:25:17;;;;;;;7.45;5.68;;;;;;;4.70;59.62;94422.94;5114479;27;20080;-71
2024/03/26 06:27:42;;;;;;;10.13;6.38;;;;;;;4.64;59.90;94425.09;5099693;27;20481;-71
2024/03/26 06:30:08;;;;;;;9.68;6.30;;;;;;;4.72;59.87;94435.72;5143326;27;20039;-72
2024/03/26 06:32:33;;;;;;;10.88;7.05;;;;;;;4.73;60.86;94439.09;5105914;27;20035;-70
2024/03/26 06:34:59;;;;;;;9.68;6.25;;;;;;;4.73;60.04;94439.09;5137414;27;20027;-71
2024/03/26 06:37:24;;;;;;;9.73;6.47;;;;;;;4.63;60.35;94439.72;5133065;27;20031;-71
2024/03/26 06:39:50;;;;;;;10.70;5.55;;;;;;;4.58;59.85;94430.66;5098458;28;20422;-71
2024/03/26 06:42:15;;;;;;;7.57;5.40;;;;;;;4.77;59.90;94451.69;5102739;28;20042;-71
2024/03/26 06:44:41;;;;;;;8.15;5.55;;;;;;;4.61;59.77;94451.03;5109284;28;20085;-71
2024/03/26 06:47:06;;;;;;;10.55;6.07;;;;;;;4.50;60.30;94432.91;5115043;28;20077;-71
2024/03/26 06:49:32;;;;;;;9.32;6.55;;;;;;;4.78;59.84;94461.03;5109879;28;20044;-71
2024/03/26 06:51:57;;;;;;;11.43;6.20;;;;;;;4.74;60.18;94456.22;5112796;28;20042;-71
2024/03/26 06:54:22;;;;;;;9.95;6.03;;;;;;;4.91;60.39;94448.19;5111740;28;20032;-71
2024/03/26 06:56:48;;;;;;;9.98;6.35;;;;;;;5.02;60.31;94457.78;5108067;28;20478;-71
2024/03/26 06:59:14;;;;;;;9.90;6.65;;;;;;;4.92;59.89;94460.94;5094397;28;20028;-71
2024/03/26 07:01:39;;;;;;;12.18;6.20;;;;;;;4.83;59.66;94455.59;5108698;28;20106;-71
2024/03/26 07:04:04;;;;;;;8.82;6.10;;;;;;;4.99;59.77;94455.41;5112033;28;20036;-71
2024/03/26 07:06:30;;;;;;;10.00;5.30;;;;;;;5.16;59.28;94457.69;5074044;28;20097;-71
2024/03/26 07:08:56;;;;;;;9.02;5.90;;;;;;;5.20;59.14;94451.38;5076014;28;20043;-71
2024/03/26 07:11:22;;;;;;;8.00;5.57;;;;;;;5.26;59.27;94442.41;5084774;28;20489;-71
2024/03/26 07:13:50;;;;;;;7.22;5.60;;;;;;;5.41;58.77;94441.41;5102338;28;20035;-71
2024/03/26 07:16:16;;;;;;;8.32;4.80;;;;;;;5.35;59.10;94439.25;5103561;28;20027;-71
2024/03/26 07:18:41;;;;;;;8.05;4.65;;;;;;;5.37;59.11;94451.06;5113089;28;20047;-71
2024/03/26 07:21:06;;;;;;;10.20;5.38;;;;;;;5.24;58.66;94439.97;5092873;28;20578;-71
2024/03/26 07:23:32;;;;;;;8.57;5.28;;;;;;;5.52;59.08;94443.25;5106692;28;20031;-71
2024/03/26 07:25:57;;;;;;;7.03;5.07;;;;;;;5.44;58.48;94440.38;5113735;28;20473;-73
2024/03/26 07:28:23;;;;;;;8.40;4.90;;;;;;;5.45;59.01;94435.09;5112742;28;20039;-70
2024/03/26 07:30:48;;;;;;;6.97;4.70;;;;;;;5.34;58.87;94432.41;5071424;28;20035;-70
2024/03/26 07:33:13;;;;;;;7.53;4.63;;;;;;;5.31;59.35;94430.88;5113648;28;20390;-70
2024/03/26 07:35:39;;;;;;;7.85;4.85;;;;;;;5.51;58.50;94426.13;5113572;28;20019;-69
2024/03/26 07:38:05;;;;;;;8.77;4.55;;;;;;;5.54;58.81;94415.59;5092231;28;20051;-70
2024/03/26 07:40:30;;;;;;;6.43;4.32;;;;;;;5.52;58.31;94428.59;5110641;28;20047;-70
2024/03/26 07:42:56;;;;;;;7.90;4.00;;;;;;;5.92;57.49;94424.97;5113210;28;20089;-70
2024/03/26 07:45:21;;;;;;;5.40;3.90;;;;;;;6.31;56.28;94410.22;5112593;28;20038;-70
2024/03/26 07:47:47;;;;;;;5.82;4.25;;;;;;;6.46;54.87;94409.06;5095924;28;20031;-70
2024/03/26 07:50:12;;;;;;;4.90;3.80;;;;;;;6.41;55.88;94406.03;5113221;28;20031;-70
2024/03/26 07:52:38;;;;;;;5.05;4.43;;;;;;;6.60;55.29;94405.50;5113677;28;20024;-70
2024/03/26 07:55:04;;;;;;;5.60;3.63;;;;;;;7.20;53.67;94403.63;5112647;28;20053;-70
2024/03/26 07:57:29;;;;;;;5.10;4.03;;;;;;;7.26;52.76;94392.81;5112677;28;20028;-70
2024/03/26 07:59:54;;;;;;;5.68;4.32;;;;;;;7.05;53.27;94396.09;5113901;28;20023;-70
2024/03/26 08:02:20;;;;;;;6.45;4.30;;;;;;;6.48;55.03;94392.56;5113668;28;20456;-70
2024/03/26 08:04:46;;;;;;;10.05;4.32;;;;;;;6.92;54.64;94400.53;5112499;28;20035;-70
2024/03/26 08:07:11;;;;;;;6.05;3.63;;;;;;;6.90;54.48;94384.31;5112906;28;20085;-70
2024/03/26 08:09:37;;;;;;;6.55;3.90;;;;;;;7.20;54.30;94394.09;5112301;28;20042;-71
2024/03/26 08:12:03;;;;;;;6.50;3.70;;;;;;;7.77;52.78;94392.28;5112478;28;20028;-69
2024/03/26 08:14:29;;;;;;;8.98;4.25;;;;;;;7.79;52.80;94388.63;5112290;28;20035;-70
2024/03/26 08:16:54;;;;;;;5.28;3.72;;;;;;;7.78;51.88;94391.38;5113865;28;20401;-70
2024/03/26 08:19:20;;;;;;;4.28;3.47;;;;;;;7.08;52.80;94384.72;5113592;28;20031;-70
2024/03/26 08:21:46;;;;;;;5.55;4.25;;;;;;;6.98;53.34;94366.50;5112340;28;20039;-70
2024/03/26 08:24:11;;;;;;;10.05;4.25;;;;;;;6.90;53.17;94382.56;5112161;28;20050;-70
2024/03/26 08:26:37;;;;;;;6.28;4.03;;;;;;;7.10;53.33;94383.66;5113658;28;20032;-70
2024/03/26 08:29:02;;;;;;;5.40;4.00;;;;;;;7.16;52.45;94395.28;5112154;28;20036;-70
2024/03/26 08:31:29;;;;;;;4.82;3.22;;;;;;;7.07;52.96;94386.44;5111851;28;20417;-70
2024/03/26 08:33:54;;;;;;;5.22;3.90;;;;;;;7.24;52.10;94387.75;5113408;28;20028;-71
2024/03/26 08:36:22;;;;;;;8.30;3.40;;;;;;;7.50;51.54;94380.59;5113340;28;20030;-70
2024/03/26 08:38:47;;;;;;;6.40;3.10;;;;;;;7.73;51.20;94386.53;5116802;27;20061;-70
2024/03/26 08:41:13;;;;;;;7.80;3.80;;;;;;;7.55;51.47;94411.22;5115453;27;20118;-70
2024/03/26 08:43:38;;;;;;;4.85;3.15;;;;;;;7.54;51.64;94401.84;5132258;27;20039;-70
2024/03/26 08:46:04;;;;;;;10.00;4.03;;;;;;;7.50;52.90;94408.19;5133723;27;20488;-70
2024/03/26 08:48:29;;;;;;;4.82;3.58;;;;;;;7.54;51.97;94405.25;5133566;27;20023;-70
2024/03/26 08:50:55;;;;;;;5.13;3.70;;;;;;;7.55;53.47;94403.47;5132208;27;20028;-70
2024/03/26 08:53:20;;;;;;;7.95;3.60;;;;;;;7.77;51.78;94393.13;5133520;27;20035;-70
2024/03/26 08:55:45;;;;;;;5.75;3.80;;;;;;;8.13;50.64;94400.69;5132113;27;20026;-71
2024/03/26 08:58:11;;;;;;;10.43;3.75;;;;;;;8.11;50.44;94398.22;5097804;27;20035;-70
2024/03/26 09:00:36;;;;;;;6.00;4.53;;;;;;;7.90;50.87;94387.00;5133403;27;20039;-70
2024/03/26 09:03:02;;;;;;;5.68;3.95;;;;;;;7.61;51.81;94393.50;5133064;27;20076;-70
2024/03/26 09:05:28;;;;;;;7.70;4.63;;;;;;;7.44;51.62;94359.53;5132025;27;20035;-71
2024/03/26 09:07:54;;;;;;;8.60;5.63;;;;;;;8.04;51.39;94390.13;5131696;27;20032;-70
2024/03/26 09:10:19;;;;;;;4.45;3.65;;;;;;;8.06;51.05;94388.22;5132974;27;20030;-70
2024/03/26 09:12:45;;;;;;;8.57;4.07;;;;;;;8.07;50.00;94379.53;5131643;27;20031;-70
2024/03/26 09:15:11;;;;;;;7.20;3.90;;;;;;;8.04;49.17;94394.47;5131747;27;20445;-70
2024/03/26 09:17:36;;;;;;;4.47;3.20;;;;;;;8.30;49.65;94392.38;5132785;27;20038;-70
2024/03/26 09:20:03;;;;;;;4.80;3.67;;;;;;;8.17;50.41;94386.56;5131465;27;20023;-70
2024/03/26 09:22:28;;;;;;;6.45;3.83;;;;;;;8.42;49.49;94383.66;5097684;27;20031;-70
2024/03/26 09:24:54;;;;;;;6.80;4.25;;;;;;;8.19;49.78;94379.47;5132693;27;20026;-70
2024/03/26 09:27:19;;;;;;;13.65;6.93;;;;;;;8.20;49.65;94383.72;5132824;27;20031;-70
2024/03/26 09:29:44;;;;;;;7.43;4.47;;;;;;;8.52;49.27;94375.16;5131323;27;20477;-70
2024/03/26 09:32:10;;;;;;;5.07;3.50;;;;;;;8.29;48.97;94359.69;5131506;27;20038;-69
2024/03/26 09:34:36;;;;;;;10.07;4.63;;;;;;;8.39;48.57;94342.50;5132516;27;20031;-70
2024/03/26 09:37:02;;;;;;;6.28;3.70;;;;;;;8.73;48.33;94363.03;5133115;27;20031;-70
2024/03/26 09:39:27;;;;;;;4.95;3.58;;;;;;;8.82;48.70;94358.88;5131237;27;20058;-70
2024/03/26 09:41:52;;;;;;;6.45;3.60;;;;;;;8.87;48.13;94354.94;5114303;27;20019;-70
2024/03/26 09:44:18;;;;;;;5.90;3.70;;;;;;;8.76;48.47;94331.72;5131163;27;20023;-70
2024/03/26 09:46:44;;;;;;;12.35;3.70;;;;;;;8.95;48.89;94346.53;5114125;27;20057;-70
2024/03/26 09:49:10;;;;;;;7.28;4.40;;;;;;;8.60;49.56;94346.88;5114068;27;20035;-71
2024/03/26 09:51:36;;;;;;;5.40;3.05;;;;;;;8.57;49.25;94349.72;5114142;27;20050;-70
2024/03/26 09:54:02;;;;;;;5.38;3.30;;;;;;;8.82;48.50;94344.13;5131057;27;20493;-70
2024/03/26 09:56:27;;;;;;;5.50;3.25;;;;;;;8.93;47.75;94333.69;5130958;27;20031;-70
2024/03/26 09:58:52;;;;;;;9.48;3.70;;;;;;;8.78;48.66;94332.41;5130939;27;20027;-70
2024/03/26 10:01:19;;;;;;;5.65;3.90;;;;;;;8.66;49.25;94297.16;5132637;27;20541;-70
2024/03/26 10:03:45;;;;;;;4.55;3.50;;;;;;;8.70;49.23;94330.44;5113345;27;20039;-71
2024/03/26 10:06:10;;;;;;;5.45;3.53;;;;;;;8.94;48.55;94330.19;5113993;27;20031;-70
2024/03/26 10:08:36;;;;;;;6.32;3.58;;;;;;;9.24;48.02;94328.50;5130657;27;20524;-70
2024/03/26 10:11:01;;;;;;;4.65;3.20;;;;;;;9.06;47.57;94328.31;5131879;27;20033;-70
2024/03/26 10:13:27;;;;;;;5.65;3.60;;;;;;;8.99;47.86;94327.19;5113498;27;20031;-69
2024/03/26 10:15:53;;;;;;;6.50;4.00;;;;;;;9.15;48.56;94329.31;5130962;27;20031;-70
2024/03/26 10:18:18;;;;;;;5.95;4.30;;;;;;;9.27;48.85;94328.25;5130706;27;20443;-70
2024/03/26 10:20:43;;;;;;;5.28;3.55;;;;;;;9.31;47.54;94314.09;5132012;27;20042;-70
2024/03/26 10:23:09;;;;;;;5.75;4.22;;;;;;;9.47;48.24;94323.13;5130975;27;20019;-70
2024/03/26 10:25:34;;;;;;;6.85;3.30;;;;;;;9.48;47.63;94320.41;5112551;28;20035;-70
2024/03/26 10:28:01;;;;;;;5.40;3.53;;;;;;;9.26;48.12;94311.06;5130456;28;20031;-69
2024/03/26 10:30:26;;;;;;;5.00;3.60;;;;;;;9.76;47.32;94313.66;5096274;28;20409;-70
2024/03/26 10:32:56;;;;;;;5.47;3.72;;;;;;;9.58;47.95;94316.09;5113155;28;20023;-70
2024/03/26 10:35:22;;;;;;;6.15;4.40;;;;;;;9.61;47.31;94317.56;5131766;27;20034;-70
2024/03/26 10:37:54;;;;;;;7.40;5.00;;;;;;;9.48;47.91;94325.59;5130366;28;20031;-70
2024/03/26 10:40:35;;;;;;;6.10;3.97;;;;;;;9.79;46.52;94310.78;5096508;28;20062;-70
2024/03/26 10:43:01;;;;;;;5.97;4.15;;;;;;;9.90;45.85;94304.66;5113710;28;20046;-70
2024/03/26 10:45:26;;;;;;;6.90;3.90;;;;;;;9.81;46.35;94311.47;5096258;28;20389;-70
2024/03/26 10:47:53;;;;;;;6.45;3.47;;;;;;;9.62;47.51;94314.84;5131635;28;20024;-70
2024/03/26 10:50:18;;;;;;;6.45;3.30;;;;;;;9.80;47.06;94299.44;5130461;28;20031;-70
2024/03/26 10:52:43;;;;;;;5.88;3.40;;;;;;;10.16;46.93;94301.53;5131859;27;20027;-70
2024/03/26 10:55:09;;;;;;;4.30;3.40;;;;;;;10.18;46.93;94289.25;5113262;28;20023;-70
2024/03/26 10:57:34;;;;;;;7.00;3.30;;;;;;;9.97;46.41;94278.97;5130230;28;20039;-70
2024/03/26 11:00:10;;;;;;;4.18;3.30;;;;;;;10.34;46.80;94292.13;5112997;28;20127;-70
2024/03/26 11:02:35;;;;;;;6.18;3.40;;;;;;;10.75;45.88;94295.31;5114546;28;20039;-70
2024/03/26 11:05:01;;;;;;;6.05;3.47;;;;;;;10.29;45.40;94297.72;5130435;28;20028;-70
2024/03/26 11:07:26;;;;;;;5.15;3.15;;;;;;;10.15;45.57;94292.94;5096142;28;20027;-70
2024/03/26 11:10:12;;;;;;;4.85;3.17;;;;;;;10.81;44.27;94286.16;5130064;28;20023;-70
2024/03/26 11:12:38;;;;;;;4.90;3.47;;;;;;;10.61;44.78;94277.59;5130362;28;20031;-70
2024/03/26 11:15:27;;;;;;;7.10;3.60;;;;;;;10.53;44.62;94273.13;5115248;27;20023;-70
2024/03/26 11:17:57;;;;;;;4.38;3.10;;;;;;;10.51;44.92;94267.25;5133976;27;20031;-70
2024/03/26 11:20:24;;;;;;;4.13;3.10;;;;;;;10.25;45.64;94267.78;5099789;27;20042;-70
2024/03/26 11:22:56;;;;;;;17.38;10.15;;;;;;;10.71;44.89;94268.81;5134110;27;20027;-70
2024/03/26 11:25:23;;;;;;;23.42;12.73;;;;;;;10.83;45.33;94268.66;5135290;27;20488;-70
2024/03/26 11:27:48;;;;;;;4.25;3.50;;;;;;;10.44;44.43;94255.75;5134043;27;20059;-70
2024/03/26 11:30:14;;;;;;;4.82;3.28;;;;;;;10.58;44.86;94249.31;5116498;27;20081;-70
2024/03/26 11:32:39;;;;;;;6.43;3.28;;;;;;;10.81;44.41;94242.81;5116477;27;20031;-70